Time;durP1;ratioP1;P1;durP2;ratioP2;P2;SDS_P1;SDS_P2;PMS_P1;PMS_P2;Temp;Humidity;BMP_temperature;BMP_pressure;BME280_temperature;BME280_humidity;BME280_pressure;Samples;Min_cycle;Max_cycle;Signal;HPM_P1;HPM_P2
2022/02/07 00:02:03;;;;;;;5.47;2.00;;;6.00;99.90;;;;;;5001218;28;20082;-61
2022/02/07 00:04:34;;;;;;;9.88;1.92;;;6.00;99.90;;;;;;4999789;28;20161;-59
2022/02/07 00:07:02;;;;;;;6.28;1.80;;;6.00;99.90;;;;;;5015509;28;20466;-59
2022/02/07 00:09:29;;;;;;;5.45;1.85;;;6.00;99.90;;;;;;5000806;28;20070;-59
2022/02/07 00:11:56;;;;;;;5.40;1.52;;;6.00;99.90;;;;;;5002121;28;20065;-59
2022/02/07 00:14:23;;;;;;;8.82;2.35;;;6.00;99.90;;;;;;5014698;28;20569;-59
2022/02/07 00:16:50;;;;;;;4.53;1.60;;;5.90;99.90;;;;;;5000981;28;20085;-59
2022/02/07 00:19:22;;;;;;;6.43;2.17;;;5.90;99.90;;;;;;5001255;28;20120;-59
2022/02/07 00:21:49;;;;;;;7.68;1.80;;;6.00;99.90;;;;;;5001706;28;20045;-59
2022/02/07 00:24:16;;;;;;;7.13;2.30;;;6.00;99.90;;;;;;5000987;28;20082;-60
2022/02/07 00:26:43;;;;;;;7.15;1.88;;;6.00;99.90;;;;;;5000520;28;20129;-60
2022/02/07 00:29:11;;;;;;;7.15;2.33;;;6.00;99.90;;;;;;4998571;28;20141;-60
2022/02/07 00:31:38;;;;;;;6.60;1.60;;;6.00;99.90;;;;;;5001123;28;20593;-60
2022/02/07 00:34:05;;;;;;;7.93;1.67;;;6.00;99.90;;;;;;5001309;28;20501;-60
2022/02/07 00:36:32;;;;;;;5.20;2.00;;;5.90;99.90;;;;;;4999261;28;20561;-60
2022/02/07 00:39:06;;;;;;;5.95;2.05;;;6.00;99.90;;;;;;5001071;28;20050;-60
2022/02/07 00:41:55;;;;;;;8.43;2.58;;;5.90;99.90;;;;;;5001660;28;20637;-60
2022/02/07 00:44:22;;;;;;;5.07;1.75;;;5.90;99.90;;;;;;5001657;28;20077;-60
2022/02/07 00:46:58;;;;;;;5.13;1.63;;;5.90;99.90;;;;;;5004184;28;20433;-60
2022/02/07 00:49:25;;;;;;;4.95;1.58;;;5.90;99.90;;;;;;5004392;28;20454;-60
2022/02/07 00:51:52;;;;;;;5.75;1.70;;;5.90;99.90;;;;;;5004732;28;20269;-60
2022/02/07 00:54:19;;;;;;;3.80;1.63;;;5.80;99.90;;;;;;5004325;28;20145;-60
2022/02/07 00:56:48;;;;;;;5.00;1.52;;;5.80;99.90;;;;;;5018880;28;20077;-60
2022/02/07 00:59:15;;;;;;;4.95;1.27;;;5.80;99.90;;;;;;5002359;28;20128;-60
2022/02/07 01:01:42;;;;;;;4.80;1.63;;;5.70;99.90;;;;;;5004730;28;20108;-61
2022/02/07 01:04:08;;;;;;;6.07;2.30;;;5.70;99.90;;;;;;5004369;28;20147;-60
2022/02/07 01:06:35;;;;;;;7.82;2.08;;;5.70;99.90;;;;;;5003495;28;20084;-61
2022/02/07 01:09:12;;;;;;;5.60;2.10;;;5.70;99.90;;;;;;5004213;28;20045;-60
2022/02/07 01:57:56;;;;;;;9.10;1.85;;;5.60;99.90;;;;;;5003333;28;20091;-61
2022/02/07 02:00:22;;;;;;;12.68;2.28;;;5.60;99.90;;;;;;4993395;28;20152;-60
2022/02/07 02:02:49;;;;;;;5.13;1.55;;;5.60;99.90;;;;;;5001496;28;20176;-60
2022/02/07 02:05:16;;;;;;;6.20;2.53;;;5.60;99.90;;;;;;5000721;28;20172;-60
2022/02/07 02:07:43;;;;;;;4.60;1.75;;;5.60;99.90;;;;;;5003535;28;20141;-60
2022/02/07 02:10:10;;;;;;;6.65;1.63;;;5.50;99.90;;;;;;5002452;28;20065;-60
2022/02/07 02:12:55;;;;;;;8.35;1.83;;;5.50;99.90;;;;;;5003176;28;20058;-60
2022/02/07 02:35:20;;;;;;;5.50;1.70;;;5.70;99.90;;;;;;4988171;28;20046;-60
2022/02/07 02:38:02;;;;;;;4.28;1.75;;;5.80;99.90;;;;;;4996634;28;20081;-60
2022/02/07 02:45:43;;;;;;;5.55;2.13;;;5.60;99.90;;;;;;5003276;28;20402;-60
2022/02/07 02:48:16;;;;;;;6.28;1.35;;;5.60;99.90;;;;;;5005031;28;20073;-60
2022/02/07 02:50:44;;;;;;;5.28;1.20;;;5.60;99.90;;;;;;5003617;28;20149;-60
2022/02/07 02:53:13;;;;;;;4.57;1.60;;;5.50;99.90;;;;;;5004531;28;20073;-61
2022/02/07 02:55:42;;;;;;;7.30;1.65;;;5.50;99.90;;;;;;5004064;28;20413;-60
2022/02/07 02:58:10;;;;;;;7.20;2.10;;;5.50;99.90;;;;;;5004398;28;20466;-60
2022/02/07 03:00:37;;;;;;;6.10;1.85;;;5.50;99.90;;;;;;5002917;28;20054;-60
2022/02/07 03:03:04;;;;;;;4.60;1.50;;;5.40;99.90;;;;;;5004821;28;20042;-60
2022/02/07 03:05:31;;;;;;;4.55;1.45;;;5.40;99.90;;;;;;5003580;28;20061;-60
2022/02/07 03:07:57;;;;;;;4.03;1.23;;;5.40;99.90;;;;;;5004163;28;20140;-60
2022/02/07 03:10:29;;;;;;;4.38;1.30;;;5.30;99.90;;;;;;5003857;28;20131;-60
2022/02/07 03:18:23;;;;;;;7.00;1.90;;;5.20;99.90;;;;;;5004071;28;20176;-60
2022/02/07 03:20:51;;;;;;;5.57;1.55;;;5.20;99.90;;;;;;5003534;28;20100;-60
2022/02/07 03:23:17;;;;;;;4.10;1.95;;;5.20;99.90;;;;;;5004399;28;20062;-60
2022/02/07 03:25:44;;;;;;;3.65;1.50;;;5.20;99.90;;;;;;5004151;28;20054;-60
2022/02/07 03:28:11;;;;;;;4.75;1.60;;;5.20;99.90;;;;;;5004466;28;20468;-60
2022/02/07 03:30:38;;;;;;;4.32;1.80;;;5.20;99.90;;;;;;5002548;28;20419;-60
2022/02/07 03:33:05;;;;;;;5.38;1.77;;;5.20;99.90;;;;;;5003261;28;20200;-60
2022/02/07 03:35:32;;;;;;;5.25;1.90;;;5.20;99.90;;;;;;5003239;28;20339;-60
2022/02/07 03:38:00;;;;;;;6.40;1.63;;;5.20;99.90;;;;;;5004096;28;20073;-60
2022/02/07 03:40:27;;;;;;;6.70;1.70;;;5.10;99.90;;;;;;5003548;28;20149;-61
2022/02/07 03:42:54;;;;;;;3.95;1.73;;;5.10;99.90;;;;;;5004064;28;20524;-60
2022/02/07 03:45:21;;;;;;;6.60;1.67;;;5.10;99.90;;;;;;5002732;28;20561;-58
2022/02/07 03:47:48;;;;;;;7.03;2.30;;;5.10;99.90;;;;;;5003107;28;20089;-60
2022/02/07 03:50:15;;;;;;;6.95;1.60;;;5.10;99.90;;;;;;5002714;28;20147;-60
2022/02/07 03:52:42;;;;;;;5.05;1.92;;;5.10;99.90;;;;;;5003117;28;20140;-60
2022/02/07 03:55:08;;;;;;;4.82;2.03;;;5.10;99.90;;;;;;5003612;28;20151;-60
2022/02/07 03:57:37;;;;;;;3.67;1.45;;;5.10;99.90;;;;;;5003482;28;20096;-60
2022/02/07 04:00:06;;;;;;;4.40;1.38;;;5.00;99.90;;;;;;5002105;28;20137;-60
2022/02/07 04:02:36;;;;;;;3.67;1.38;;;5.00;99.90;;;;;;5002867;28;20137;-60
2022/02/07 04:05:31;;;;;;;5.20;1.95;;;5.00;99.90;;;;;;5002717;28;20116;-60
2022/02/07 04:07:50;;;;;;;4.15;1.40;;;4.90;99.90;;;;;;5003488;28;20141;-60
2022/02/07 04:10:18;;;;;;;5.43;1.25;;;4.90;99.90;;;;;;5003493;28;20131;-60
2022/02/07 04:12:51;;;;;;;2.85;1.23;;;4.80;99.90;;;;;;5003237;28;20145;-60
2022/02/07 04:15:19;;;;;;;2.72;1.10;;;4.80;99.90;;;;;;5001999;28;20112;-61
2022/02/07 04:17:53;;;;;;;2.67;0.98;;;4.80;99.90;;;;;;5017377;28;20575;-60
2022/02/07 04:20:20;;;;;;;3.28;1.35;;;4.80;99.90;;;;;;5005697;28;20128;-60
2022/02/07 04:22:47;;;;;;;2.70;1.13;;;4.70;99.90;;;;;;5007346;28;20137;-60
2022/02/07 04:25:14;;;;;;;5.03;1.23;;;4.70;99.90;;;;;;5005656;28;20050;-60
2022/02/07 04:27:40;;;;;;;3.83;1.40;;;4.60;99.90;;;;;;5007473;28;20110;-60
2022/02/07 04:30:08;;;;;;;3.70;0.95;;;4.60;99.90;;;;;;5005821;28;20452;-60
2022/02/07 04:32:34;;;;;;;3.78;1.67;;;4.60;99.90;;;;;;5006911;28;20562;-61
2022/02/07 04:35:01;;;;;;;3.40;1.13;;;4.50;99.90;;;;;;5006600;28;20077;-60
2022/02/07 04:37:28;;;;;;;2.55;1.02;;;4.50;99.90;;;;;;5006915;28;20136;-59
2022/02/07 04:39:55;;;;;;;3.63;0.90;;;4.40;99.90;;;;;;5006800;28;20092;-60
2022/02/07 04:42:24;;;;;;;3.17;0.88;;;4.40;99.90;;;;;;5006870;28;20393;-59
2022/02/07 04:47:37;;;;;;;3.63;1.13;;;4.30;99.90;;;;;;5006692;28;20129;-59
2022/02/07 04:55:30;;;;;;;5.20;1.58;;;4.10;99.90;;;;;;5006620;28;20125;-59
2022/02/07 04:58:03;;;;;;;3.58;0.85;;;4.10;99.90;;;;;;5006672;28;20054;-59
2022/02/07 05:03:17;;;;;;;3.55;1.02;;;4.00;99.90;;;;;;5006445;28;20956;-59
2022/02/07 05:13:50;;;;;;;4.85;1.30;;;3.70;99.90;;;;;;5004941;28;20462;-60
2022/02/07 05:16:26;;;;;;;2.17;0.70;;;3.60;99.90;;;;;;5005742;28;20129;-60
2022/02/07 05:18:56;;;;;;;5.55;1.48;;;3.70;99.90;;;;;;5005909;28;20145;-60
2022/02/07 05:21:23;;;;;;;3.45;1.15;;;3.60;99.90;;;;;;5005087;28;20107;-60
2022/02/07 05:23:50;;;;;;;3.42;1.20;;;3.60;99.90;;;;;;5005687;28;20045;-59
2022/02/07 05:26:17;;;;;;;2.60;1.00;;;3.60;99.90;;;;;;5006200;28;20149;-59
2022/02/07 05:28:45;;;;;;;3.67;1.00;;;3.60;99.90;;;;;;5019257;28;20077;-59
2022/02/07 05:31:12;;;;;;;3.20;0.95;;;3.60;99.90;;;;;;5004376;28;20104;-59
2022/02/07 05:33:39;;;;;;;4.28;1.23;;;3.60;99.90;;;;;;5005885;28;20097;-59
2022/02/07 05:36:09;;;;;;;3.30;0.90;;;3.50;99.90;;;;;;5004428;28;20640;-60
2022/02/07 05:38:42;;;;;;;2.78;1.13;;;3.50;99.90;;;;;;5004730;28;20151;-59
2022/02/07 05:41:10;;;;;;;2.33;0.82;;;3.50;99.90;;;;;;4985524;28;20149;-59
2022/02/07 05:43:44;;;;;;;3.50;0.95;;;3.50;99.90;;;;;;5002418;28;20103;-59
2022/02/07 05:46:13;;;;;;;3.67;1.20;;;3.40;99.90;;;;;;4992228;28;20116;-59
2022/02/07 05:48:40;;;;;;;3.38;1.60;;;3.40;99.90;;;;;;5001569;28;20141;-60
2022/02/07 05:51:07;;;;;;;3.60;1.60;;;3.40;99.90;;;;;;5000122;28;20042;-57
2022/02/07 05:53:34;;;;;;;4.28;1.90;;;3.30;99.90;;;;;;4997480;28;20050;-60
2022/02/07 05:56:01;;;;;;;4.88;1.30;;;3.30;99.90;;;;;;4998471;28;20133;-59
2022/02/07 05:58:28;;;;;;;2.50;1.30;;;3.30;99.90;;;;;;4995993;28;20054;-58
2022/02/07 06:00:54;;;;;;;3.05;1.30;;;3.30;99.90;;;;;;4997540;28;20084;-59
2022/02/07 06:03:21;;;;;;;1.85;0.90;;;3.30;99.90;;;;;;4992436;28;20135;-59
2022/02/07 06:05:51;;;;;;;3.67;0.90;;;3.30;99.90;;;;;;4998499;28;20129;-59
2022/02/07 06:08:19;;;;;;;2.67;1.00;;;3.20;99.90;;;;;;4994447;28;20390;-59
2022/02/07 06:10:47;;;;;;;2.05;0.93;;;3.20;99.90;;;;;;4990496;28;20770;-59
2022/02/07 06:13:16;;;;;;;4.68;1.45;;;3.20;99.90;;;;;;4992423;28;20128;-59
2022/02/07 06:15:43;;;;;;;3.15;1.20;;;3.20;99.90;;;;;;4985325;28;20065;-59
2022/02/07 06:18:13;;;;;;;2.15;0.88;;;3.10;99.90;;;;;;4998113;28;20089;-60
2022/02/07 06:20:40;;;;;;;3.13;1.27;;;3.10;99.90;;;;;;4994259;28;20156;-60
2022/02/07 06:23:07;;;;;;;2.95;0.98;;;3.10;99.90;;;;;;4999346;28;20121;-60
2022/02/07 06:25:33;;;;;;;5.18;1.40;;;3.10;99.90;;;;;;4986715;28;20089;-59
2022/02/07 06:28:00;;;;;;;3.88;1.50;;;3.10;99.90;;;;;;4982141;28;20152;-60
2022/02/07 06:30:27;;;;;;;4.65;1.25;;;3.10;99.90;;;;;;4993660;28;20371;-60
2022/02/07 06:32:54;;;;;;;4.03;1.25;;;3.10;99.90;;;;;;4998212;28;20089;-59
2022/02/07 06:35:20;;;;;;;3.53;1.30;;;3.20;99.90;;;;;;4998297;28;20893;-60
2022/02/07 06:37:47;;;;;;;3.17;1.17;;;3.20;99.90;;;;;;4999733;28;20128;-60
2022/02/07 06:40:14;;;;;;;3.38;1.30;;;3.10;99.90;;;;;;4990931;28;20750;-60
2022/02/07 06:42:40;;;;;;;4.40;1.17;;;3.10;99.90;;;;;;5005878;28;20053;-60
2022/02/07 06:45:08;;;;;;;3.17;0.80;;;3.10;99.90;;;;;;4994001;28;20508;-60
2022/02/07 06:47:34;;;;;;;3.20;0.93;;;3.10;99.90;;;;;;4998133;28;20077;-60
2022/02/07 06:50:01;;;;;;;3.30;1.00;;;3.00;99.90;;;;;;4991036;28;20435;-59
2022/02/07 06:52:28;;;;;;;2.45;0.73;;;3.00;99.90;;;;;;4999111;28;20096;-59
2022/02/07 06:54:55;;;;;;;5.20;1.10;;;3.00;99.90;;;;;;4994641;28;20084;-59
2022/02/07 06:57:22;;;;;;;5.75;1.67;;;3.00;99.90;;;;;;4985755;28;20153;-60
2022/02/07 06:59:49;;;;;;;5.03;1.20;;;2.90;99.90;;;;;;4994730;28;20156;-60
2022/02/07 07:02:19;;;;;;;1.75;0.85;;;2.90;99.90;;;;;;4995150;28;20077;-60
2022/02/07 07:04:45;;;;;;;2.35;0.90;;;2.90;99.90;;;;;;4998400;28;20521;-59
2022/02/07 07:07:13;;;;;;;5.25;1.35;;;2.80;99.90;;;;;;4991367;28;20127;-58
2022/02/07 07:09:43;;;;;;;4.38;1.25;;;2.90;99.90;;;;;;4996915;28;20050;-59
2022/02/07 07:12:10;;;;;;;2.05;0.90;;;2.90;99.90;;;;;;4993025;28;20140;-58
2022/02/07 07:14:47;;;;;;;3.83;1.10;;;2.80;99.90;;;;;;4993843;28;20137;-59
2022/02/07 07:17:14;;;;;;;3.70;1.15;;;2.90;99.90;;;;;;4993886;28;20594;-60
2022/02/07 07:19:42;;;;;;;2.22;0.88;;;2.90;99.90;;;;;;4990981;28;20514;-59
2022/02/07 07:22:09;;;;;;;1.67;1.30;;;2.80;99.90;;;;;;4991899;28;20058;-59
2022/02/07 07:24:36;;;;;;;2.30;1.02;;;2.80;99.90;;;;;;4993621;28;20466;-59
2022/02/07 07:27:04;;;;;;;3.00;1.10;;;2.80;99.90;;;;;;4997966;28;20085;-59
2022/02/07 07:29:35;;;;;;;1.77;0.73;;;2.80;99.90;;;;;;4998014;28;20097;-59
2022/02/07 07:32:05;;;;;;;1.63;0.90;;;2.80;99.90;;;;;;4999493;28;20485;-58
2022/02/07 07:34:32;;;;;;;5.10;1.67;;;2.80;99.90;;;;;;4998321;28;20065;-56
2022/02/07 07:36:58;;;;;;;2.33;0.90;;;2.80;99.90;;;;;;4999709;28;20084;-59
2022/02/07 07:39:25;;;;;;;2.80;0.85;;;2.80;99.90;;;;;;4998985;28;20137;-59
2022/02/07 07:41:52;;;;;;;4.50;1.10;;;2.80;99.90;;;;;;4999645;28;20085;-59
2022/02/07 07:44:24;;;;;;;3.85;1.45;;;2.80;99.90;;;;;;4998238;28;20058;-59
2022/02/07 07:46:56;;;;;;;3.28;0.93;;;2.80;99.90;;;;;;4998692;28;20694;-59
2022/02/07 07:49:31;;;;;;;2.75;1.00;;;2.80;99.90;;;;;;4998676;28;20137;-54
2022/02/07 07:52:10;;;;;;;2.60;0.93;;;2.80;99.90;;;;;;4999633;28;20064;-60
2022/02/07 08:02:35;;;;;;;2.58;1.33;;;2.80;99.90;;;;;;4999033;28;20428;-59
2022/02/07 08:05:09;;;;;;;2.28;1.05;;;2.90;99.90;;;;;;4997753;28;20564;-58
2022/02/07 08:07:39;;;;;;;1.90;0.80;;;2.90;99.90;;;;;;4999547;28;20124;-62
2022/02/07 08:10:25;;;;;;;2.08;1.13;;;2.90;99.90;;;;;;4998351;28;20112;-58
2022/02/07 08:12:52;;;;;;;3.70;1.10;;;3.00;99.90;;;;;;4998468;28;20077;-59
2022/02/07 08:15:19;;;;;;;4.35;1.33;;;3.00;99.90;;;;;;4991522;28;20567;-57
2022/02/07 08:17:45;;;;;;;2.08;1.10;;;3.10;99.90;;;;;;4989525;28;20325;-58
2022/02/07 08:20:15;;;;;;;2.72;1.10;;;3.20;99.90;;;;;;4990214;28;20064;-57
2022/02/07 08:22:41;;;;;;;3.15;1.30;;;3.30;99.90;;;;;;4988084;28;20053;-57
2022/02/07 08:25:08;;;;;;;3.22;1.52;;;3.30;99.90;;;;;;4986225;28;20129;-55
2022/02/07 08:27:36;;;;;;;2.33;1.10;;;3.30;99.90;;;;;;4991187;28;20145;-57
2022/02/07 08:30:08;;;;;;;1.92;0.90;;;3.40;99.90;;;;;;4999503;28;20050;-59
2022/02/07 08:32:35;;;;;;;3.25;1.23;;;3.50;99.90;;;;;;4997887;28;20081;-59
2022/02/07 08:35:04;;;;;;;4.47;1.20;;;3.60;99.90;;;;;;4995889;28;20058;-59
2022/02/07 08:37:31;;;;;;;4.70;1.38;;;3.70;99.90;;;;;;4994829;28;20216;-58
2022/02/07 08:39:58;;;;;;;6.30;1.35;;;3.80;99.90;;;;;;4990338;28;20089;-58
2022/02/07 08:42:24;;;;;;;4.38;1.75;;;3.80;99.90;;;;;;4999302;28;20749;-58
2022/02/07 08:44:52;;;;;;;4.63;1.80;;;3.90;99.90;;;;;;4988838;28;20061;-58
2022/02/07 08:47:19;;;;;;;5.03;1.48;;;4.10;99.90;;;;;;4987083;28;20068;-58
2022/02/07 08:49:46;;;;;;;8.30;1.60;;;4.10;99.90;;;;;;4987712;28;20190;-59
2022/02/07 08:52:13;;;;;;;7.30;3.00;;;4.20;99.90;;;;;;5004858;28;20452;-58
2022/02/07 08:54:40;;;;;;;4.60;1.70;;;4.30;99.90;;;;;;4998003;28;20149;-58
2022/02/07 08:57:31;;;;;;;3.58;1.67;;;4.40;99.90;;;;;;4991243;28;20104;-56
2022/02/07 09:00:11;;;;;;;7.15;1.60;;;4.50;99.90;;;;;;4994798;28;20050;-58
2022/02/07 09:03:06;;;;;;;4.75;1.70;;;4.60;99.90;;;;;;4985535;28;20045;-58
2022/02/07 09:10:47;;;;;;;4.30;1.50;;;4.80;99.90;;;;;;4990650;28;20057;-59
2022/02/07 09:13:14;;;;;;;3.40;1.50;;;4.90;99.90;;;;;;4988061;28;20078;-59
2022/02/07 09:15:54;;;;;;;4.28;2.20;;;5.00;99.90;;;;;;5003699;28;20176;-58
2022/02/07 09:18:21;;;;;;;6.15;1.50;;;5.00;99.90;;;;;;5021210;28;20245;-59
2022/02/07 09:20:49;;;;;;;4.22;1.38;;;5.10;99.90;;;;;;5018858;28;20477;-59
2022/02/07 09:23:16;;;;;;;3.67;1.35;;;5.20;99.90;;;;;;5007646;28;20077;-59
2022/02/07 09:25:43;;;;;;;5.28;1.98;;;5.30;99.90;;;;;;4999639;28;20516;-58
2022/02/07 09:28:10;;;;;;;8.90;2.75;;;5.30;99.90;;;;;;5003460;28;20133;-58
2022/02/07 09:30:36;;;;;;;8.95;2.53;;;5.40;99.90;;;;;;5001928;28;20145;-58
2022/02/07 09:33:03;;;;;;;4.47;1.60;;;5.40;99.90;;;;;;5000882;28;20152;-59
2022/02/07 09:35:31;;;;;;;8.20;1.77;;;5.50;99.90;;;;;;5000248;28;20513;-59
2022/02/07 09:37:58;;;;;;;7.85;2.20;;;5.60;99.90;;;;;;5001209;28;20042;-59
2022/02/07 09:40:26;;;;;;;5.78;1.92;;;5.60;99.90;;;;;;5003124;28;20132;-59
2022/02/07 09:42:57;;;;;;;4.32;2.05;;;5.80;99.90;;;;;;5016085;28;20136;-59
2022/02/07 09:45:33;;;;;;;6.50;1.80;;;5.80;99.90;;;;;;4999408;28;20136;-59
2022/02/07 09:48:02;;;;;;;8.43;2.53;;;6.00;99.90;;;;;;5000704;28;20085;-59
2022/02/07 09:50:29;;;;;;;6.72;1.90;;;6.10;99.90;;;;;;5000089;28;20142;-59
2022/02/07 09:52:55;;;;;;;7.50;2.15;;;6.20;99.90;;;;;;5001040;28;20041;-58
2022/02/07 09:55:22;;;;;;;8.35;2.15;;;6.40;99.90;;;;;;4999659;28;20147;-59
2022/02/07 09:57:52;;;;;;;4.93;2.13;;;6.50;99.90;;;;;;4995857;28;20080;-59
2022/02/07 10:00:27;;;;;;;8.65;2.15;;;6.50;99.90;;;;;;5003655;28;20049;-59
2022/02/07 10:03:12;;;;;;;5.05;1.85;;;6.60;99.90;;;;;;4994789;28;20144;-58
2022/02/07 10:05:48;;;;;;;6.43;2.03;;;6.60;99.90;;;;;;4988865;28;20077;-59
2022/02/07 10:08:57;;;;;;;7.68;1.80;;;6.70;99.90;;;;;;5000067;28;20133;-55
2022/02/07 10:13:47;;;;;;;6.43;2.17;;;6.80;99.90;;;;;;4987854;28;20108;-59
2022/02/07 10:40:34;;;;;;;8.00;1.92;;;7.20;99.90;;;;;;4999812;28;20141;-58
2022/02/07 10:43:31;;;;;;;6.10;1.70;;;7.20;99.90;;;;;;4986483;28;20057;-58
2022/02/07 10:46:12;;;;;;;9.00;2.35;;;7.30;99.90;;;;;;4984169;28;20439;-58
2022/02/07 10:48:41;;;;;;;5.53;1.98;;;7.20;99.90;;;;;;4999810;28;20161;-58
2022/02/07 10:51:17;;;;;;;6.43;2.20;;;7.20;99.90;;;;;;5000100;28;20050;-58
2022/02/07 10:53:49;;;;;;;9.60;2.40;;;7.20;99.90;;;;;;4999978;28;20141;-58
2022/02/07 10:56:18;;;;;;;9.55;1.85;;;7.30;99.90;;;;;;4998335;28;20081;-59
2022/02/07 10:58:46;;;;;;;6.10;2.45;;;7.30;99.90;;;;;;4998534;28;20149;-59
2022/02/07 11:01:19;;;;;;;9.05;2.33;;;7.30;99.90;;;;;;4998656;28;20599;-58
2022/02/07 11:03:58;;;;;;;7.28;2.13;;;7.30;99.90;;;;;;4999373;28;20483;-59
2022/02/07 11:06:33;;;;;;;9.00;2.15;;;7.30;99.90;;;;;;4997645;28;20133;-59
2022/02/07 11:22:10;;;;;;;9.02;2.45;;;7.60;99.90;;;;;;5002881;28;20145;-58
2022/02/07 11:27:49;;;;;;;7.50;2.45;;;7.70;99.90;;;;;;5002546;28;20434;-59
2022/02/07 11:30:39;;;;;;;8.82;3.15;;;7.80;99.90;;;;;;5000544;28;20059;-58
2022/02/07 11:33:08;;;;;;;8.20;2.33;;;7.90;99.90;;;;;;5003019;28;20054;-58
2022/02/07 11:35:49;;;;;;;7.72;2.42;;;8.00;99.90;;;;;;5004738;28;20132;-58
2022/02/07 11:38:19;;;;;;;7.80;2.83;;;8.10;99.90;;;;;;5005917;28;20138;-57
2022/02/07 11:40:55;;;;;;;6.68;2.05;;;8.30;99.90;;;;;;5005410;28;20053;-59
2022/02/07 11:43:34;;;;;;;6.10;2.92;;;8.40;99.90;;;;;;5004613;28;20177;-58
2022/02/07 11:46:04;;;;;;;8.32;2.47;;;8.50;99.90;;;;;;5004982;28;20410;-58
2022/02/07 11:48:35;;;;;;;9.98;2.55;;;8.60;99.90;;;;;;5000783;28;20085;-58
2022/02/07 11:51:14;;;;;;;5.53;2.45;;;8.70;99.90;;;;;;5002181;28;20570;-58
2022/02/07 11:53:46;;;;;;;5.57;1.90;;;8.80;99.90;;;;;;5005480;28;20586;-58
2022/02/07 11:56:58;;;;;;;4.70;1.65;;;8.90;99.90;;;;;;5005919;28;20566;-58
2022/02/07 11:59:28;;;;;;;8.80;2.08;;;9.00;99.90;;;;;;5004359;28;20082;-59
2022/02/07 12:02:03;;;;;;;8.18;2.85;;;9.20;99.90;;;;;;5003541;28;20053;-59
2022/02/07 12:04:46;;;;;;;6.07;2.78;;;9.20;99.90;;;;;;5001154;28;20089;-59
2022/02/07 12:07:18;;;;;;;4.72;2.00;;;9.40;99.90;;;;;;5002493;28;20292;-58
2022/02/07 12:10:03;;;;;;;6.55;2.92;;;9.60;99.90;;;;;;5004447;28;20049;-58
2022/02/07 12:12:40;;;;;;;7.35;3.00;;;9.70;99.90;;;;;;5004784;28;20137;-59
2022/02/07 12:15:08;;;;;;;6.82;2.50;;;9.90;99.90;;;;;;4997626;28;20054;-59
2022/02/07 12:17:39;;;;;;;6.72;2.75;;;10.20;99.90;;;;;;5001271;28;20049;-59
2022/02/07 12:20:07;;;;;;;8.80;2.95;;;10.20;99.90;;;;;;5004185;28;20376;-58
2022/02/07 12:22:53;;;;;;;7.70;2.75;;;10.30;99.90;;;;;;5003220;28;20077;-58
2022/02/07 12:25:47;;;;;;;7.35;2.67;;;10.50;99.90;;;;;;5000714;28;20057;-59
2022/02/07 12:31:11;;;;;;;4.97;2.10;;;10.90;99.90;;;;;;4994172;28;20050;-59
2022/02/07 12:33:39;;;;;;;5.10;1.80;;;11.10;99.90;;;;;;4995501;28;20046;-59
2022/02/07 12:36:06;;;;;;;5.03;2.03;;;11.20;99.90;;;;;;5001730;28;20062;-59
2022/02/07 12:38:40;;;;;;;4.70;2.00;;;11.40;99.90;;;;;;4993864;28;20488;-58
2022/02/07 12:41:09;;;;;;;5.45;1.92;;;11.60;99.90;;;;;;4994572;28;20049;-59
2022/02/07 12:43:38;;;;;;;4.85;1.95;;;11.70;99.90;;;;;;4993033;28;20414;-59
2022/02/07 12:46:07;;;;;;;3.88;1.85;;;11.70;99.90;;;;;;4991276;28;20061;-59
2022/02/07 12:48:37;;;;;;;6.05;1.88;;;11.70;99.90;;;;;;4987177;28;20147;-59
2022/02/07 12:51:04;;;;;;;7.43;1.77;;;11.70;99.90;;;;;;4982261;28;20177;-59
2022/02/07 12:53:31;;;;;;;6.15;1.95;;;11.70;99.90;;;;;;4991034;28;20148;-59
2022/02/07 12:55:59;;;;;;;6.05;1.85;;;11.50;99.90;;;;;;5000788;28;20164;-60
2022/02/07 12:58:32;;;;;;;5.38;1.70;;;11.30;99.90;;;;;;5001135;28;20056;-58
2022/02/07 13:01:14;;;;;;;5.25;2.17;;;11.20;99.90;;;;;;5000396;28;20165;-58
2022/02/07 13:03:54;;;;;;;5.75;2.00;;;11.00;99.90;;;;;;5000415;28;20819;-59
2022/02/07 13:06:25;;;;;;;5.80;1.80;;;11.20;99.90;;;;;;5000178;28;20156;-59
2022/02/07 13:09:18;;;;;;;6.10;2.10;;;11.20;99.90;;;;;;5001749;28;20073;-60
2022/02/07 13:12:00;;;;;;;7.50;1.67;;;11.20;99.90;;;;;;5001551;28;20094;-59
2022/02/07 13:14:27;;;;;;;4.75;1.77;;;11.30;99.90;;;;;;4998900;28;20089;-59
2022/02/07 13:16:54;;;;;;;5.82;2.20;;;11.20;99.90;;;;;;4984249;28;20675;-59
2022/02/07 13:19:21;;;;;;;5.35;1.75;;;11.30;99.90;;;;;;5001093;28;20140;-59
2022/02/07 13:21:51;;;;;;;4.25;1.88;;;11.30;99.90;;;;;;5001119;28;20147;-59
2022/02/07 13:24:23;;;;;;;5.78;1.83;;;11.50;99.90;;;;;;5001333;28;20589;-59
2022/02/07 13:26:54;;;;;;;8.05;2.15;;;11.50;99.90;;;;;;5002092;28;20145;-59
2022/02/07 13:29:23;;;;;;;6.75;2.42;;;11.40;99.90;;;;;;5000456;28;20548;-59
2022/02/07 13:31:57;;;;;;;5.00;1.88;;;11.20;99.90;;;;;;5001565;28;20473;-59
2022/02/07 13:34:29;;;;;;;8.23;2.75;;;11.20;99.90;;;;;;4999715;28;20370;-58
2022/02/07 13:37:07;;;;;;;8.18;2.08;;;11.40;99.90;;;;;;5001917;28;20165;-59
2022/02/07 13:39:57;;;;;;;3.72;1.50;;;11.50;99.90;;;;;;5001286;28;20054;-59
2022/02/07 13:42:37;;;;;;;4.88;2.20;;;11.70;99.90;;;;;;5001333;28;20440;-59
2022/02/07 13:45:16;;;;;;;6.25;2.20;;;11.60;99.90;;;;;;4996575;28;20081;-59
2022/02/07 13:47:49;;;;;;;5.32;2.55;;;11.80;99.90;;;;;;4996769;28;20565;-59
2022/02/07 13:50:16;;;;;;;4.90;1.70;;;11.90;99.90;;;;;;4997171;28;20133;-59
2022/02/07 13:52:45;;;;;;;4.80;2.20;;;12.10;99.90;;;;;;4997909;28;20133;-59
2022/02/07 13:55:26;;;;;;;5.78;1.98;;;12.20;99.90;;;;;;4998609;28;20093;-59
2022/02/07 13:58:02;;;;;;;4.70;1.63;;;12.20;99.90;;;;;;5000922;28;20089;-59
2022/02/07 14:00:31;;;;;;;3.70;1.38;;;12.80;99.90;;;;;;4990715;28;20113;-59
2022/02/07 14:03:05;;;;;;;4.05;1.77;;;13.30;99.90;;;;;;5008044;28;20065;-59
2022/02/07 14:05:37;;;;;;;5.05;2.10;;;13.50;99.90;;;;;;4996151;28;20050;-59
2022/02/07 14:08:05;;;;;;;4.68;1.88;;;13.60;99.90;;;;;;4987894;28;20096;-59
2022/02/07 14:10:36;;;;;;;5.47;2.10;;;13.70;99.90;;;;;;4992778;28;20132;-59
2022/02/07 14:13:04;;;;;;;3.78;1.67;;;13.70;99.90;;;;;;5007232;28;20528;-59
2022/02/07 14:15:31;;;;;;;4.10;1.55;;;13.40;99.90;;;;;;4997818;28;20089;-59
2022/02/07 14:17:58;;;;;;;5.97;1.75;;;13.60;99.90;;;;;;4997991;28;20557;-59
2022/02/07 14:20:30;;;;;;;5.03;1.80;;;13.50;99.90;;;;;;4987741;28;20130;-59
2022/02/07 14:22:57;;;;;;;4.18;1.85;;;13.00;99.90;;;;;;4994621;28;20077;-60
2022/02/07 14:25:28;;;;;;;4.28;2.03;;;12.90;99.90;;;;;;4994944;28;20425;-59
2022/02/07 14:27:59;;;;;;;5.75;2.00;;;12.90;99.90;;;;;;4999332;28;20163;-59
2022/02/07 14:30:31;;;;;;;6.25;1.63;;;13.10;99.90;;;;;;4991024;28;20054;-60
2022/02/07 14:32:59;;;;;;;4.75;1.77;;;13.20;99.90;;;;;;4988422;28;20133;-60
2022/02/07 14:35:26;;;;;;;4.78;1.73;;;12.90;99.90;;;;;;4988458;28;20046;-58
2022/02/07 14:37:53;;;;;;;4.45;2.05;;;13.00;99.90;;;;;;4991322;28;20085;-58
2022/02/07 14:40:20;;;;;;;4.13;1.80;;;13.30;99.90;;;;;;4991058;28;20058;-59
2022/02/07 14:42:47;;;;;;;8.82;2.13;;;13.20;99.90;;;;;;4993513;28;20145;-59
2022/02/07 14:45:15;;;;;;;4.68;1.90;;;12.80;99.90;;;;;;4983552;28;20120;-59
2022/02/07 14:50:23;;;;;;;7.03;2.30;;;12.40;99.90;;;;;;4992013;28;20146;-59
2022/02/07 14:52:50;;;;;;;6.35;2.65;;;12.00;99.90;;;;;;4993514;28;20057;-59
2022/02/07 14:55:18;;;;;;;7.03;2.67;;;11.80;99.90;;;;;;4994544;28;20502;-59
2022/02/07 14:57:46;;;;;;;5.22;1.83;;;11.50;99.90;;;;;;4992897;28;20552;-59
2022/02/07 15:00:23;;;;;;;4.80;2.00;;;11.50;99.90;;;;;;4992088;28;20050;-59
2022/02/07 15:02:50;;;;;;;5.70;2.13;;;11.30;99.90;;;;;;4997238;28;20092;-59
2022/02/07 15:05:17;;;;;;;5.20;2.25;;;11.20;99.90;;;;;;4989040;28;20142;-59
2022/02/07 15:07:44;;;;;;;6.47;2.53;;;11.10;99.90;;;;;;4982806;28;20181;-59
2022/02/07 15:10:12;;;;;;;6.50;3.05;;;11.00;99.90;;;;;;4997309;28;20136;-59
2022/02/07 15:12:44;;;;;;;9.27;3.17;;;10.90;99.90;;;;;;4998173;28;20116;-59
2022/02/07 15:15:11;;;;;;;7.93;2.88;;;10.80;99.90;;;;;;4995048;28;20090;-59
2022/02/07 15:17:37;;;;;;;5.10;2.50;;;10.70;99.90;;;;;;4989285;28;20092;-59
2022/02/07 15:20:05;;;;;;;5.40;2.90;;;10.60;99.90;;;;;;5004313;28;20137;-59
2022/02/07 15:22:32;;;;;;;6.47;2.40;;;10.60;99.90;;;;;;4980104;28;20092;-59
2022/02/07 15:25:00;;;;;;;5.50;2.78;;;10.60;99.90;;;;;;4999114;28;20167;-59
2022/02/07 15:27:29;;;;;;;6.55;2.67;;;10.60;99.90;;;;;;4996898;28;20046;-59
2022/02/07 15:30:04;;;;;;;8.55;2.67;;;10.50;99.90;;;;;;4988957;28;20057;-59
2022/02/07 15:32:38;;;;;;;5.43;2.53;;;10.50;99.90;;;;;;4988490;28;20455;-59
2022/02/07 15:35:05;;;;;;;6.93;2.17;;;10.50;99.90;;;;;;4991978;28;20161;-59
2022/02/07 15:37:32;;;;;;;6.07;2.17;;;10.50;99.90;;;;;;4990782;28;20117;-58
2022/02/07 15:39:59;;;;;;;5.07;1.70;;;10.50;99.90;;;;;;4994809;28;20097;-59
2022/02/07 15:42:26;;;;;;;7.50;1.90;;;10.50;99.90;;;;;;4988742;28;20077;-59
2022/02/07 15:44:56;;;;;;;4.88;1.90;;;10.50;99.90;;;;;;4990920;28;20156;-59
2022/02/07 15:47:25;;;;;;;7.72;1.98;;;10.50;99.90;;;;;;4990564;28;20050;-59
2022/02/07 15:49:52;;;;;;;5.97;2.45;;;10.50;99.90;;;;;;4992540;28;20160;-59